Time;durP1;ratioP1;P1;durP2;ratioP2;P2;SDS_P1;SDS_P2;PMS_P1;PMS_P2;Temp;Humidity;BMP_temperature;BMP_pressure;BME280_temperature;BME280_humidity;BME280_pressure;Samples;Min_cycle;Max_cycle;Signal;HPM_P1;HPM_P2
2020/06/10 00:00:11;;;;;;;1.85;1.75;;;;;;;19.93;49.28;100388.70;;;;-51
2020/06/10 00:06:21;;;;;;;3.17;2.04;;;;;;;19.92;49.28;100385.58;;;;-50
2020/06/10 00:09:29;;;;;;;1.96;1.86;;;;;;;19.92;49.30;100387.28;;;;-49
2020/06/10 00:15:21;;;;;;;1.99;1.89;;;;;;;19.90;49.30;100375.09;;;;-49
2020/06/10 00:24:25;;;;;;;2.21;1.90;;;;;;;19.90;49.31;100379.52;;;;-49
2020/06/10 00:27:18;;;;;;;1.94;1.84;;;;;;;19.89;49.31;100379.15;;;;-51
2020/06/10 00:33:20;;;;;;;2.01;1.91;;;;;;;19.89;49.33;100380.48;;;;-49
2020/06/10 00:36:37;;;;;;;2.67;1.87;;;;;;;19.88;49.35;100375.35;;;;-49
2020/06/10 00:39:22;;;;;;;1.89;1.77;;;;;;;19.88;49.38;100376.82;;;;-49
2020/06/10 00:42:22;;;;;;;1.81;1.71;;;;;;;19.87;49.35;100374.47;;;;-49
2020/06/10 00:45:19;;;;;;;2.03;1.88;;;;;;;19.88;49.35;100372.97;;;;-51
2020/06/10 00:55:25;;;;;;;2.05;1.93;;;;;;;19.86;49.35;100360.19;;;;-50
2020/06/10 00:58:15;;;;;;;1.85;1.75;;;;;;;19.87;49.38;100365.83;;;;-49
2020/06/10 01:04:27;;;;;;;1.79;1.69;;;;;;;19.86;49.40;100364.77;;;;-49
2020/06/10 01:12:55;;;;;;;2.08;1.80;;;;;;;19.86;49.39;100357.91;;;;-50
2020/06/10 01:15:24;;;;;;;1.90;1.80;;;;;;;19.85;49.44;100357.53;;;;-50
2020/06/10 01:18:16;;;;;;;1.90;1.80;;;;;;;19.85;49.42;100352.40;;;;-49
2020/06/10 01:21:15;;;;;;;2.00;1.90;;;;;;;19.85;49.42;100353.17;;;;-50
2020/06/10 01:24:35;;;;;;;1.90;1.80;;;;;;;19.84;49.40;100350.89;;;;-49
2020/06/10 01:33:32;;;;;;;2.01;1.87;;;;;;;19.84;49.45;100342.23;;;;-49
2020/06/10 01:39:18;;;;;;;1.88;1.78;;;;;;;19.83;49.42;100336.44;;;;-51
2020/06/10 01:42:16;;;;;;;2.19;1.99;;;;;;;19.83;49.44;100337.00;;;;-50
2020/06/10 01:45:27;;;;;;;1.96;1.86;;;;;;;19.82;49.44;100333.27;;;;-49
2020/06/10 01:48:57;;;;;;;2.00;1.90;;;;;;;19.83;49.45;100333.48;;;;-51
2020/06/10 01:57:16;;;;;;;2.03;1.93;;;;;;;19.83;49.47;100325.94;;;;-52
2020/06/10 02:05:20;;;;;;;1.96;1.86;;;;;;;19.81;49.44;100308.03;;;;-50
2020/06/10 02:08:13;;;;;;;2.16;1.97;;;;;;;19.82;49.50;100304.45;;;;-51
2020/06/10 02:11:17;;;;;;;1.99;1.89;;;;;;;19.82;49.45;100301.94;;;;-49
2020/06/10 02:14:34;;;;;;;1.93;1.79;;;;;;;19.82;49.45;100301.20;;;;-49
2020/06/10 02:17:20;;;;;;;1.96;1.86;;;;;;;19.82;49.47;100304.61;;;;-49
2020/06/10 02:20:11;;;;;;;2.68;1.89;;;;;;;19.81;49.46;100302.39;;;;-51
2020/06/10 02:23:11;;;;;;;2.05;1.95;;;;;;;19.82;49.43;100300.42;;;;-50
2020/06/10 02:26:10;;;;;;;2.00;1.90;;;;;;;19.81;49.50;100299.81;;;;-51
2020/06/10 02:29:12;;;;;;;2.21;2.01;;;;;;;19.81;49.48;100300.82;;;;-51
2020/06/10 02:32:57;;;;;;;1.98;1.88;;;;;;;19.81;49.49;100301.99;;;;-50
2020/06/10 02:35:10;;;;;;;2.11;2.00;;;;;;;19.80;49.46;100303.36;;;;-52
2020/06/10 02:38:12;;;;;;;1.90;1.80;;;;;;;19.81;49.48;100310.77;;;;-51
2020/06/10 02:41:11;;;;;;;1.91;1.81;;;;;;;19.80;49.48;100310.50;;;;-51
2020/06/10 02:44:11;;;;;;;2.18;1.99;;;;;;;19.80;49.45;100304.87;;;;-51
2020/06/10 02:47:21;;;;;;;2.27;2.07;;;;;;;19.80;49.51;100307.88;;;;-51
2020/06/10 02:54:28;;;;;;;2.20;2.00;;;;;;;19.79;49.53;100305.66;;;;-51
2020/06/10 02:57:16;;;;;;;2.20;2.00;;;;;;;19.78;49.54;100309.92;;;;-51
2020/06/10 03:00:26;;;;;;;2.03;1.91;;;;;;;19.78;49.56;100309.92;;;;-50
2020/06/10 03:03:23;;;;;;;2.00;1.90;;;;;;;19.79;49.53;100312.20;;;;-50
2020/06/10 03:09:20;;;;;;;1.90;1.80;;;;;;;19.78;49.53;100315.45;;;;-50
2020/06/10 03:18:20;;;;;;;2.27;2.10;;;;;;;19.77;49.56;100319.76;;;;-52
2020/06/10 03:21:11;;;;;;;2.10;2.00;;;;;;;19.77;49.54;100322.27;;;;-51
2020/06/10 03:24:11;;;;;;;2.09;1.99;;;;;;;19.77;49.58;100318.76;;;;-50
2020/06/10 03:27:11;;;;;;;2.01;1.91;;;;;;;19.76;49.58;100318.11;;;;-50
2020/06/10 03:30:33;;;;;;;2.08;1.93;;;;;;;19.76;49.58;100318.95;;;;-51
2020/06/10 03:33:47;;;;;;;2.10;2.00;;;;;;;19.76;49.82;100317.20;;;;-51
2020/06/10 03:36:24;;;;;;;2.30;2.09;;;;;;;19.76;49.60;100320.89;;;;-49
2020/06/10 03:39:17;;;;;;;3.91;2.14;;;;;;;19.76;49.64;100318.21;;;;-50
2020/06/10 03:45:17;;;;;;;3.59;2.09;;;;;;;19.75;49.72;100317.09;;;;-50
2020/06/10 03:48:23;;;;;;;2.45;1.95;;;;;;;19.75;49.67;100315.09;;;;-50
2020/06/10 03:51:20;;;;;;;2.00;1.90;;;;;;;19.75;49.65;100314.81;;;;-50
2020/06/10 03:54:49;;;;;;;2.19;1.99;;;;;;;19.74;49.60;100315.63;;;;-51
2020/06/10 03:58:15;;;;;;;2.27;2.09;;;;;;;19.75;49.67;100319.51;;;;-50
2020/06/10 04:13:19;;;;;;;2.29;2.09;;;;;;;19.74;49.60;100318.20;;;;-50
2020/06/10 04:16:24;;;;;;;2.00;1.90;;;;;;;19.74;49.60;100319.47;;;;-50
2020/06/10 04:23:16;;;;;;;1.96;1.86;;;;;;;19.73;49.59;100317.09;;;;-54
2020/06/10 04:26:33;;;;;;;2.00;1.90;;;;;;;19.74;49.63;100318.80;;;;-53
2020/06/10 04:29:39;;;;;;;2.35;2.06;;;;;;;19.72;49.56;100311.11;;;;-53
2020/06/10 04:32:18;;;;;;;2.23;1.90;;;;;;;19.73;49.60;100312.90;;;;-54
2020/06/10 04:35:24;;;;;;;2.30;2.10;;;;;;;19.74;49.59;100307.47;;;;-54
2020/06/10 04:39:38;;;;;;;2.10;2.00;;;;;;;19.73;49.63;100305.35;;;;-53
2020/06/10 04:42:17;;;;;;;2.97;2.10;;;;;;;19.73;49.61;100303.45;;;;-53
2020/06/10 04:45:22;;;;;;;2.23;2.03;;;;;;;19.73;49.62;100304.81;;;;-53
2020/06/10 04:48:19;;;;;;;2.30;2.10;;;;;;;19.73;49.62;100303.84;;;;-53
2020/06/10 04:51:27;;;;;;;2.49;2.29;;;;;;;19.73;49.68;100301.13;;;;-53
2020/06/10 04:54:19;;;;;;;2.43;2.23;;;;;;;19.72;49.66;100301.80;;;;-54
2020/06/10 04:57:16;;;;;;;2.42;2.17;;;;;;;19.73;49.69;100305.48;;;;-53
2020/06/10 05:00:20;;;;;;;3.65;2.18;;;;;;;19.72;49.64;100307.99;;;;-52
2020/06/10 05:09:01;;;;;;;2.26;2.06;;;;;;;19.72;49.67;100308.33;;;;-53
2020/06/10 05:14:08;;;;;;;2.19;2.03;;;;;;;19.71;49.65;100309.39;;;;-54
2020/06/10 05:17:24;;;;;;;2.13;2.00;;;;;;;19.72;49.77;100308.29;;;;-52
2020/06/10 05:26:31;;;;;;;2.52;2.31;;;;;;;19.71;49.73;100302.25;;;;-54
2020/06/10 05:35:20;;;;;;;2.26;2.14;;;;;;;19.71;49.74;100303.89;;;;-53
2020/06/10 05:38:20;;;;;;;2.61;2.20;;;;;;;19.70;49.72;100302.65;;;;-52
2020/06/10 05:41:34;;;;;;;2.09;1.99;;;;;;;19.70;49.73;100300.60;;;;-53
2020/06/10 05:44:18;;;;;;;2.35;2.17;;;;;;;19.70;49.77;100299.87;;;;-53
2020/06/10 05:48:39;;;;;;;2.42;2.22;;;;;;;19.70;49.74;100301.98;;;;-53
2020/06/10 05:51:17;;;;;;;2.34;2.17;;;;;;;19.70;49.75;100299.94;;;;-52
2020/06/10 05:54:22;;;;;;;2.40;2.20;;;;;;;19.70;49.79;100299.43;;;;-53
2020/06/10 05:57:18;;;;;;;2.50;2.30;;;;;;;19.70;49.67;100300.60;;;;-53
2020/06/10 06:00:27;;;;;;;2.57;2.22;;;;;;;19.70;49.74;100300.98;;;;-53
2020/06/10 06:03:24;;;;;;;2.27;2.09;;;;;;;19.70;49.72;100303.62;;;;-53
2020/06/10 06:10:17;;;;;;;2.33;2.13;;;;;;;19.70;49.76;100301.67;;;;-53
2020/06/10 06:13:21;;;;;;;2.33;2.13;;;;;;;19.70;49.69;100301.27;;;;-53
2020/06/10 06:16:16;;;;;;;2.29;2.11;;;;;;;19.69;49.80;100302.27;;;;-54
2020/06/10 06:19:23;;;;;;;2.38;2.18;;;;;;;19.69;49.72;100300.67;;;;-52
2020/06/10 06:26:30;;;;;;;2.40;2.20;;;;;;;19.68;49.82;100298.88;;;;-53
2020/06/10 06:29:17;;;;;;;2.51;2.31;;;;;;;19.68;49.90;100302.73;;;;-53
2020/06/10 06:32:24;;;;;;;2.24;2.04;;;;;;;19.68;49.89;100300.45;;;;-53
2020/06/10 06:38:20;;;;;;;2.41;2.21;;;;;;;19.67;49.87;100298.41;;;;-54
2020/06/10 06:41:35;;;;;;;2.37;2.17;;;;;;;19.67;49.95;100294.95;;;;-53
2020/06/10 06:44:16;;;;;;;2.41;2.21;;;;;;;19.67;49.83;100298.84;;;;-53
2020/06/10 06:50:17;;;;;;;2.52;2.32;;;;;;;19.68;49.85;100303.53;;;;-53
2020/06/10 06:53:24;;;;;;;2.39;2.19;;;;;;;19.68;49.84;100304.64;;;;-53
2020/06/10 06:56:15;;;;;;;2.60;2.40;;;;;;;19.68;49.85;100307.05;;;;-53
2020/06/10 06:59:16;;;;;;;2.43;2.23;;;;;;;19.68;49.83;100308.00;;;;-53
2020/06/10 07:03:30;;;;;;;2.67;2.11;;;;;;;19.67;49.89;100305.61;;;;-53
2020/06/10 07:06:28;;;;;;;2.40;2.20;;;;;;;19.67;49.88;100307.35;;;;-53
2020/06/10 07:09:19;;;;;;;2.94;2.10;;;;;;;19.67;49.87;100310.12;;;;-52
2020/06/10 07:12:18;;;;;;;2.59;2.04;;;;;;;19.67;49.91;100311.14;;;;-53
2020/06/10 07:19:16;;;;;;;2.27;2.13;;;;;;;19.67;49.87;100303.94;;;;-53
2020/06/10 07:22:18;;;;;;;2.28;2.10;;;;;;;19.66;49.88;100302.48;;;;-52
2020/06/10 07:25:16;;;;;;;2.43;2.23;;;;;;;19.67;49.90;100304.20;;;;-54
2020/06/10 07:29:27;;;;;;;2.41;2.21;;;;;;;19.67;49.91;100304.60;;;;-54
2020/06/10 07:39:25;;;;;;;5.05;2.27;;;;;;;19.73;50.94;100305.92;;;;-53
2020/06/10 07:48:27;;;;;;;3.05;2.29;;;;;;;19.78;50.98;100308.58;;;;-48
2020/06/10 07:52:31;;;;;;;3.10;2.22;;;;;;;19.80;50.84;100305.30;;;;-47
2020/06/10 07:55:26;;;;;;;2.77;2.21;;;;;;;19.82;50.91;100302.70;;;;-54
2020/06/10 08:04:49;;;;;;;2.43;2.22;;;;;;;19.83;50.79;100302.81;;;;-55
2020/06/10 08:07:16;;;;;;;3.17;2.13;;;;;;;19.85;50.88;100299.54;;;;-54
2020/06/10 08:10:36;;;;;;;2.83;2.25;;;;;;;19.85;50.86;100301.32;;;;-53
2020/06/10 08:19:23;;;;;;;2.85;2.20;;;;;;;19.86;50.71;100299.92;;;;-56
2020/06/10 08:33:14;;;;;;;3.04;2.13;;;;;;;19.91;50.79;100292.91;;;;-52
2020/06/10 08:36:52;;;;;;;10.26;2.66;;;;;;;19.92;51.21;100294.46;;;;-51
2020/06/10 08:39:16;;;;;;;5.60;3.53;;;;;;;19.89;52.36;100294.11;;;;-54
2020/06/10 08:42:38;;;;;;;4.47;3.32;;;;;;;19.88;52.40;100292.02;;;;-52
2020/06/10 08:48:57;;;;;;;7.82;3.38;;;;;;;19.92;52.00;100292.75;;;;-59
2020/06/10 08:51:14;;;;;;;4.34;2.80;;;;;;;19.93;51.84;100287.90;;;;-56
2020/06/10 08:54:23;;;;;;;5.24;2.62;;;;;;;19.95;51.74;100293.24;;;;-53
2020/06/10 08:57:20;;;;;;;4.97;2.66;;;;;;;19.96;51.45;100295.25;;;;-54
2020/06/10 09:06:21;;;;;;;3.53;2.60;;;;;;;20.00;51.73;100282.88;;;;-52
2020/06/10 09:09:14;;;;;;;3.35;2.53;;;;;;;20.01;51.48;100278.22;;;;-50
2020/06/10 09:12:11;;;;;;;4.50;2.40;;;;;;;20.01;51.32;100282.18;;;;-54
2020/06/10 09:15:18;;;;;;;6.85;2.51;;;;;;;20.02;51.30;100282.28;;;;-54
2020/06/10 09:18:20;;;;;;;3.23;2.48;;;;;;;20.02;51.29;100286.17;;;;-57
2020/06/10 09:24:23;;;;;;;4.41;2.37;;;;;;;20.03;51.25;100285.61;;;;-51
2020/06/10 09:34:15;;;;;;;5.37;2.32;;;;;;;20.06;51.16;100289.31;;;;-53
2020/06/10 09:37:20;;;;;;;5.85;2.30;;;;;;;20.06;51.13;100292.94;;;;-55
2020/06/10 09:40:22;;;;;;;3.63;2.36;;;;;;;20.08;51.15;100295.86;;;;-56
2020/06/10 09:43:22;;;;;;;4.63;2.34;;;;;;;20.08;51.13;100296.44;;;;-60
2020/06/10 09:46:16;;;;;;;3.73;2.03;;;;;;;20.09;51.13;100292.28;;;;-62
2020/06/10 09:54:18;;;;;;;3.98;2.25;;;;;;;20.11;51.08;100291.52;;;;-57
2020/06/10 09:57:26;;;;;;;3.04;2.23;;;;;;;20.10;51.01;100286.56;;;;-54
2020/06/10 10:00:23;;;;;;;3.34;2.30;;;;;;;20.12;51.12;100288.14;;;;-55
2020/06/10 10:10:16;;;;;;;5.37;2.36;;;;;;;20.12;50.95;100283.45;;;;-57
2020/06/10 10:13:14;;;;;;;4.74;2.32;;;;;;;20.14;51.15;100280.00;;;;-57
2020/06/10 10:16:59;;;;;;;4.57;2.33;;;;;;;20.13;51.06;100281.31;;;;-56
2020/06/10 10:20:27;;;;;;;5.70;2.31;;;;;;;20.11;51.08;100279.89;;;;-58
2020/06/10 10:27:18;;;;;;;5.37;2.21;;;;;;;20.11;51.15;100271.41;;;;-58
2020/06/10 10:31:17;;;;;;;3.40;2.12;;;;;;;20.12;51.02;100268.92;;;;-55
2020/06/10 10:34:21;;;;;;;3.27;2.19;;;;;;;20.13;50.85;100268.47;;;;-55
2020/06/10 10:37:34;;;;;;;3.50;2.14;;;;;;;20.14;50.96;100268.00;;;;-52
2020/06/10 10:40:18;;;;;;;4.82;2.09;;;;;;;20.14;50.81;100265.32;;;;-58
2020/06/10 10:48:18;;;;;;;2.57;2.00;;;;;;;20.14;50.86;100264.25;;;;-54
2020/06/10 10:51:25;;;;;;;2.72;2.20;;;;;;;20.16;51.00;100256.34;;;;-61
2020/06/10 10:54:20;;;;;;;2.85;2.16;;;;;;;20.17;50.85;100255.20;;;;-56
2020/06/10 11:02:30;;;;;;;2.17;2.03;;;;;;;20.18;50.88;100244.68;;;;-54
2020/06/10 11:06:49;;;;;;;3.52;2.27;;;;;;;20.18;50.88;100247.03;;;;-54
2020/06/10 11:09:28;;;;;;;2.93;2.00;;;;;;;20.18;50.84;100240.16;;;;-50
2020/06/10 11:12:15;;;;;;;2.71;2.16;;;;;;;20.17;50.83;100239.45;;;;-50
2020/06/10 11:15:38;;;;;;;3.34;2.12;;;;;;;20.16;50.88;100237.67;;;;-50
2020/06/10 11:30:22;;;;;;;2.37;2.14;;;;;;;20.14;50.63;100236.31;;;;-53
2020/06/10 11:33:12;;;;;;;4.14;2.28;;;;;;;20.14;50.63;100236.41;;;;-52
2020/06/10 11:39:20;;;;;;;2.29;2.05;;;;;;;20.13;50.62;100233.77;;;;-51
2020/06/10 11:42:19;;;;;;;2.86;2.14;;;;;;;20.13;50.57;100235.88;;;;-50
2020/06/10 11:45:35;;;;;;;2.34;2.09;;;;;;;20.11;50.62;100231.84;;;;-50
2020/06/10 11:48:15;;;;;;;2.41;2.13;;;;;;;20.12;50.52;100235.23;;;;-53
2020/06/10 11:51:15;;;;;;;3.09;2.19;;;;;;;20.12;50.45;100234.73;;;;-50
2020/06/10 11:54:21;;;;;;;2.39;2.19;;;;;;;20.11;50.57;100237.81;;;;-51
2020/06/10 11:57:17;;;;;;;2.27;2.07;;;;;;;20.10;50.47;100236.94;;;;-50
2020/06/10 12:04:22;;;;;;;4.45;2.18;;;;;;;20.09;50.50;100237.73;;;;-51
2020/06/10 12:07:17;;;;;;;3.77;2.00;;;;;;;20.11;50.66;100237.37;;;;-56
2020/06/10 12:10:17;;;;;;;2.89;2.22;;;;;;;20.10;50.62;100241.19;;;;-54
2020/06/10 12:13:20;;;;;;;2.95;2.05;;;;;;;20.10;50.65;100236.27;;;;-55
2020/06/10 12:19:27;;;;;;;2.83;2.11;;;;;;;20.12;50.88;100227.95;;;;-54
2020/06/10 12:22:23;;;;;;;4.84;2.25;;;;;;;20.13;50.92;100222.12;;;;-50
2020/06/10 12:25:33;;;;;;;4.06;2.21;;;;;;;20.14;50.87;100220.16;;;;-58
2020/06/10 12:28:24;;;;;;;4.91;2.13;;;;;;;20.15;50.89;100223.95;;;;-52
2020/06/10 12:31:16;;;;;;;9.19;2.43;;;;;;;20.16;51.16;100224.82;;;;-51
2020/06/10 12:34:36;;;;;;;6.87;2.23;;;;;;;20.18;51.43;100223.83;;;;-48
2020/06/10 12:37:17;;;;;;;5.99;2.57;;;;;;;20.19;51.24;100221.58;;;;-48
2020/06/10 12:46:31;;;;;;;9.92;2.69;;;;;;;20.21;52.04;100217.56;;;;-51
2020/06/10 12:49:18;;;;;;;5.34;2.25;;;;;;;20.21;51.48;100212.60;;;;-52
2020/06/10 12:52:16;;;;;;;4.42;2.52;;;;;;;20.19;51.55;100212.96;;;;-53
2020/06/10 12:55:35;;;;;;;2.91;2.44;;;;;;;20.19;51.29;100214.03;;;;-53
2020/06/10 12:58:16;;;;;;;5.96;2.45;;;;;;;20.18;51.33;100211.66;;;;-53
2020/06/10 13:02:56;;;;;;;4.27;2.50;;;;;;;20.17;51.31;100206.41;;;;-53
2020/06/10 13:05:25;;;;;;;3.19;2.53;;;;;;;20.17;51.27;100212.35;;;;-52
2020/06/10 13:08:17;;;;;;;5.14;2.41;;;;;;;20.16;51.16;100208.89;;;;-53
2020/06/10 13:11:23;;;;;;;5.17;2.25;;;;;;;20.16;51.22;100210.56;;;;-53
2020/06/10 13:14:19;;;;;;;4.17;2.23;;;;;;;20.16;51.12;100208.29;;;;-53
2020/06/10 13:20:18;;;;;;;2.59;2.32;;;;;;;20.15;51.06;100202.59;;;;-53
2020/06/10 13:23:31;;;;;;;4.16;2.27;;;;;;;20.15;51.15;100203.42;;;;-53
2020/06/10 13:26:15;;;;;;;4.55;2.39;;;;;;;20.14;50.98;100200.20;;;;-53
2020/06/10 13:29:15;;;;;;;4.73;2.37;;;;;;;20.14;51.07;100201.61;;;;-53
2020/06/10 13:32:25;;;;;;;3.75;2.38;;;;;;;20.14;50.90;100201.27;;;;-53
2020/06/10 13:35:26;;;;;;;2.56;2.36;;;;;;;20.14;50.93;100199.93;;;;-53
2020/06/10 13:38:19;;;;;;;3.13;2.43;;;;;;;20.13;50.93;100195.38;;;;-53
2020/06/10 13:41:50;;;;;;;3.86;2.47;;;;;;;20.14;51.08;100187.69;;;;-53
2020/06/10 13:47:58;;;;;;;3.99;2.44;;;;;;;20.16;51.24;100195.14;;;;-60
2020/06/10 13:50:27;;;;;;;2.78;2.31;;;;;;;20.18;51.27;100192.61;;;;-58
2020/06/10 13:56:19;;;;;;;3.91;2.17;;;;;;;20.20;51.64;100185.97;;;;-57
2020/06/10 13:59:28;;;;;;;6.91;2.46;;;;;;;20.21;51.52;100192.21;;;;-52
2020/06/10 14:02:23;;;;;;;4.09;2.32;;;;;;;20.21;51.43;100187.89;;;;-51
2020/06/10 14:11:15;;;;;;;3.58;2.30;;;;;;;20.24;51.48;100182.09;;;;-55
2020/06/10 14:14:35;;;;;;;4.16;2.40;;;;;;;20.24;51.38;100179.61;;;;-55
2020/06/10 14:17:25;;;;;;;2.49;2.25;;;;;;;20.25;51.36;100181.80;;;;-55
2020/06/10 14:30:15;;;;;;;3.74;2.51;;;;;;;20.25;51.27;100182.30;;;;-54
2020/06/10 14:33:25;;;;;;;2.50;2.25;;;;;;;20.24;51.17;100178.14;;;;-54
2020/06/10 14:36:33;;;;;;;3.27;2.27;;;;;;;20.23;51.14;100174.11;;;;-53
2020/06/10 14:39:16;;;;;;;3.62;2.21;;;;;;;20.21;51.08;100170.41;;;;-52
2020/06/10 14:42:25;;;;;;;8.51;2.27;;;;;;;20.23;51.07;100168.58;;;;-53
2020/06/10 14:45:17;;;;;;;3.29;2.53;;;;;;;20.22;50.99;100163.51;;;;-53
2020/06/10 14:48:19;;;;;;;3.29;2.31;;;;;;;20.20;50.97;100162.36;;;;-53
2020/06/10 14:55:20;;;;;;;2.11;2.00;;;;;;;20.20;50.94;100163.94;;;;-54
2020/06/10 14:58:11;;;;;;;3.25;2.24;;;;;;;20.19;50.84;100160.72;;;;-55
2020/06/10 15:01:16;;;;;;;2.57;2.06;;;;;;;20.19;50.96;100158.70;;;;-54
2020/06/10 15:04:10;;;;;;;4.73;2.20;;;;;;;20.18;51.03;100152.13;;;;-54
2020/06/10 15:07:31;;;;;;;2.21;1.99;;;;;;;20.19;50.85;100148.58;;;;-54
2020/06/10 15:10:26;;;;;;;3.51;2.15;;;;;;;20.21;51.04;100148.11;;;;-54
2020/06/10 15:18:20;;;;;;;2.58;2.18;;;;;;;20.22;51.44;100141.14;;;;-52
2020/06/10 15:25:18;;;;;;;4.10;2.27;;;;;;;20.24;51.26;100136.82;;;;-52
2020/06/10 15:28:20;;;;;;;3.42;2.20;;;;;;;20.25;51.26;100139.54;;;;-52
2020/06/10 15:31:37;;;;;;;3.03;2.21;;;;;;;20.26;51.26;100135.38;;;;-52
2020/06/10 15:34:51;;;;;;;2.55;2.32;;;;;;;20.27;51.28;100135.42;;;;-52
2020/06/10 15:37:55;;;;;;;2.76;2.23;;;;;;;20.28;51.42;100132.00;;;;-53
2020/06/10 15:40:35;;;;;;;2.42;2.15;;;;;;;20.28;51.25;100127.91;;;;-52
2020/06/10 15:43:23;;;;;;;2.40;2.20;;;;;;;20.29;51.36;100127.61;;;;-53
2020/06/10 15:46:28;;;;;;;2.29;2.09;;;;;;;20.29;51.42;100127.48;;;;-56
2020/06/10 15:49:38;;;;;;;2.39;2.19;;;;;;;20.30;51.38;100128.66;;;;-53
2020/06/10 15:52:19;;;;;;;3.06;2.29;;;;;;;20.31;51.13;100123.39;;;;-54
2020/06/10 15:59:31;;;;;;;3.67;2.35;;;;;;;20.32;51.63;100124.13;;;;-52
2020/06/10 16:15:38;;;;;;;3.48;2.24;;;;;;;20.33;51.32;100116.79;;;;-50
2020/06/10 16:19:12;;;;;;;3.92;2.35;;;;;;;20.35;51.42;100121.05;;;;-56
2020/06/10 16:22:19;;;;;;;3.49;2.20;;;;;;;20.34;51.30;100112.80;;;;-55
2020/06/10 16:34:21;;;;;;;2.47;2.21;;;;;;;20.35;51.22;100115.52;;;;-52
2020/06/10 16:37:21;;;;;;;3.15;2.20;;;;;;;20.37;51.33;100118.94;;;;-51
2020/06/10 16:40:26;;;;;;;2.35;2.14;;;;;;;20.38;51.37;100118.81;;;;-52
2020/06/10 16:43:52;;;;;;;3.55;2.10;;;;;;;20.39;51.16;100115.55;;;;-52
2020/06/10 16:47:18;;;;;;;2.37;2.15;;;;;;;20.39;51.25;100113.55;;;;-51
2020/06/10 16:50:24;;;;;;;3.35;2.10;;;;;;;20.39;51.25;100116.73;;;;-55
2020/06/10 17:09:53;;;;;;;2.44;2.24;;;;;;;20.34;51.09;100108.94;;;;-51
2020/06/10 17:12:53;;;;;;;3.29;2.29;;;;;;;20.34;51.01;100109.01;;;;-52
2020/06/10 17:15:46;;;;;;;2.06;1.96;;;;;;;20.33;51.09;100110.38;;;;-53
2020/06/10 17:18:54;;;;;;;3.07;2.27;;;;;;;20.33;51.01;100107.70;;;;-53
2020/06/10 17:21:51;;;;;;;2.19;1.99;;;;;;;20.32;50.99;100107.66;;;;-53
2020/06/10 17:25:58;;;;;;;2.37;2.17;;;;;;;20.32;50.86;100107.42;;;;-53
2020/06/10 17:28:37;;;;;;;2.32;2.12;;;;;;;20.31;50.82;100106.55;;;;-53
2020/06/10 17:31:42;;;;;;;2.85;2.11;;;;;;;20.30;50.87;100100.31;;;;-53
2020/06/10 17:34:38;;;;;;;2.24;2.04;;;;;;;20.29;50.83;100095.34;;;;-53
2020/06/10 17:37:52;;;;;;;2.15;1.95;;;;;;;20.29;50.82;100099.54;;;;-53
2020/06/10 17:40:42;;;;;;;2.19;2.01;;;;;;;20.29;50.77;100101.05;;;;-53
2020/06/10 17:45:22;;;;;;;2.48;2.21;;;;;;;20.28;50.75;100096.66;;;;-53
2020/06/10 17:49:54;;;;;;;4.38;2.22;;;;;;;20.27;50.79;100094.37;;;;-53
2020/06/10 17:52:53;;;;;;;2.21;2.01;;;;;;;20.27;50.75;100093.83;;;;-53
2020/06/10 17:55:57;;;;;;;2.29;2.09;;;;;;;20.26;50.77;100097.16;;;;-53
2020/06/10 17:58:41;;;;;;;2.21;2.01;;;;;;;20.26;50.66;100092.45;;;;-53
2020/06/10 18:04:38;;;;;;;2.30;2.10;;;;;;;20.25;50.84;100094.09;;;;-53
2020/06/10 18:17:51;;;;;;;2.19;1.98;;;;;;;20.24;50.78;100086.58;;;;-53
2020/06/10 18:20:46;;;;;;;2.14;2.03;;;;;;;20.24;50.71;100091.41;;;;-53
2020/06/10 18:23:40;;;;;;;2.21;2.02;;;;;;;20.23;50.68;100091.17;;;;-51
2020/06/10 18:26:49;;;;;;;2.29;2.10;;;;;;;20.23;50.74;100094.87;;;;-50
2020/06/10 18:29:39;;;;;;;2.32;2.12;;;;;;;20.23;50.69;100095.88;;;;-49
2020/06/10 18:32:41;;;;;;;2.11;2.00;;;;;;;20.22;50.67;100090.91;;;;-51
2020/06/10 18:35:43;;;;;;;2.46;2.23;;;;;;;20.22;50.66;100094.66;;;;-51
2020/06/10 18:38:37;;;;;;;2.21;2.11;;;;;;;20.22;50.67;100096.00;;;;-51
2020/06/10 18:41:45;;;;;;;2.11;2.01;;;;;;;20.21;50.69;100091.03;;;;-51
2020/06/10 18:48:37;;;;;;;2.45;2.11;;;;;;;20.21;50.87;100097.08;;;;-51
2020/06/10 18:51:45;;;;;;;2.29;2.10;;;;;;;20.23;50.85;100095.13;;;;-51
2020/06/10 18:57:41;;;;;;;3.45;2.33;;;;;;;20.25;51.08;100087.92;;;;-51
2020/06/10 19:00:39;;;;;;;2.35;2.15;;;;;;;20.25;51.05;100092.36;;;;-50
2020/06/10 19:07:26;;;;;;;2.49;2.05;;;;;;;20.27;51.06;100093.73;;;;-52
2020/06/10 19:10:40;;;;;;;3.87;2.25;;;;;;;20.28;51.08;100093.91;;;;-52
2020/06/10 19:18:48;;;;;;;2.35;2.15;;;;;;;20.29;51.09;100099.47;;;;-53
2020/06/10 19:26:45;;;;;;;2.25;2.06;;;;;;;20.30;51.17;100100.69;;;;-50
2020/06/10 19:32:57;;;;;;;2.17;1.97;;;;;;;20.31;51.24;100101.12;;;;-54
2020/06/10 19:35:38;;;;;;;2.19;1.99;;;;;;;20.32;51.14;100099.98;;;;-53
2020/06/10 19:38:39;;;;;;;2.85;1.99;;;;;;;20.33;51.07;100098.64;;;;-55
2020/06/10 19:41:51;;;;;;;2.49;2.10;;;;;;;20.33;51.07;100103.20;;;;-59
2020/06/10 19:47:41;;;;;;;2.51;1.94;;;;;;;20.34;51.18;100101.73;;;;-51
2020/06/10 19:50:39;;;;;;;4.13;1.90;;;;;;;20.36;51.10;100100.86;;;;-47
2020/06/10 19:53:36;;;;;;;5.17;2.01;;;;;;;20.34;51.32;100102.23;;;;-52
2020/06/10 19:56:49;;;;;;;6.56;2.23;;;;;;;20.35;51.10;100104.52;;;;-59
2020/06/10 19:59:43;;;;;;;5.57;2.16;;;;;;;20.36;51.20;100107.23;;;;-60
2020/06/10 20:03:12;;;;;;;2.45;1.97;;;;;;;20.36;51.14;100105.22;;;;-61
2020/06/10 20:08:39;;;;;;;4.28;2.11;;;;;;;20.36;51.19;100105.39;;;;-58
2020/06/10 20:14:39;;;;;;;3.33;1.90;;;;;;;20.36;51.32;100109.08;;;;-53
2020/06/10 20:17:53;;;;;;;3.58;1.94;;;;;;;20.38;51.19;100113.78;;;;-53
2020/06/10 20:24:36;;;;;;;3.32;2.08;;;;;;;20.40;51.28;100121.13;;;;-57
2020/06/10 20:28:02;;;;;;;2.35;2.10;;;;;;;20.40;51.09;100121.53;;;;-54
2020/06/10 20:39:58;;;;;;;4.09;2.20;;;;;;;20.41;51.08;100112.44;;;;-52
2020/06/10 20:48:37;;;;;;;3.35;2.01;;;;;;;20.35;51.08;100114.07;;;;-52
2020/06/10 20:51:43;;;;;;;2.33;2.13;;;;;;;20.34;51.12;100117.56;;;;-51
2020/06/10 20:54:46;;;;;;;2.99;2.01;;;;;;;20.32;51.09;100118.66;;;;-52
2020/06/10 21:05:41;;;;;;;2.45;2.15;;;;;;;20.29;51.07;100120.30;;;;-53
2020/06/10 21:08:43;;;;;;;2.21;2.01;;;;;;;20.28;51.13;100113.48;;;;-53
2020/06/10 21:14:55;;;;;;;2.76;2.10;;;;;;;20.26;51.09;100111.06;;;;-53
2020/06/10 21:17:32;;;;;;;2.35;2.14;;;;;;;20.25;51.00;100114.09;;;;-53
2020/06/10 21:23:31;;;;;;;2.37;2.12;;;;;;;20.24;51.06;100117.54;;;;-53
2020/06/10 21:26:31;;;;;;;2.07;1.97;;;;;;;20.23;51.12;100118.61;;;;-54
2020/06/10 21:29:40;;;;;;;2.52;2.26;;;;;;;20.22;51.10;100116.66;;;;-53
2020/06/10 21:36:45;;;;;;;2.55;2.13;;;;;;;20.21;51.13;100117.36;;;;-53
2020/06/10 21:39:48;;;;;;;3.19;2.31;;;;;;;20.19;51.02;100116.72;;;;-53
2020/06/10 21:42:31;;;;;;;2.38;2.17;;;;;;;20.19;51.03;100116.45;;;;-53
2020/06/10 21:45:37;;;;;;;2.39;2.19;;;;;;;20.18;51.01;100120.20;;;;-53
2020/06/10 21:48:35;;;;;;;3.19;2.13;;;;;;;20.18;51.12;100121.01;;;;-53
2020/06/10 21:51:45;;;;;;;8.03;2.27;;;;;;;20.17;51.06;100109.77;;;;-53
2020/06/10 21:54:31;;;;;;;3.43;2.21;;;;;;;20.17;51.06;100106.83;;;;-53
2020/06/10 21:57:31;;;;;;;2.50;2.30;;;;;;;20.16;51.08;100107.22;;;;-53
2020/06/10 22:06:41;;;;;;;2.48;2.28;;;;;;;20.15;51.04;100105.91;;;;-53
2020/06/10 22:09:37;;;;;;;2.46;2.26;;;;;;;20.14;51.16;100106.14;;;;-53
2020/06/10 22:12:43;;;;;;;2.56;2.36;;;;;;;20.13;51.13;100101.81;;;;-53
2020/06/10 22:15:36;;;;;;;2.75;2.26;;;;;;;20.12;51.06;100098.09;;;;-53
2020/06/10 22:24:39;;;;;;;2.53;2.33;;;;;;;20.10;51.10;100096.52;;;;-53
2020/06/10 22:27:42;;;;;;;2.61;2.41;;;;;;;20.11;51.08;100096.05;;;;-53
2020/06/10 22:30:43;;;;;;;2.49;2.28;;;;;;;20.09;51.14;100092.79;;;;-53
2020/06/10 22:34:20;;;;;;;2.60;2.40;;;;;;;20.09;51.15;100097.08;;;;-53
2020/06/10 22:36:32;;;;;;;2.59;2.39;;;;;;;20.08;51.13;100093.76;;;;-52
2020/06/10 22:40:11;;;;;;;2.62;2.42;;;;;;;20.08;51.11;100094.87;;;;-53
2020/06/10 22:42:35;;;;;;;2.66;2.39;;;;;;;20.07;51.20;100092.41;;;;-53
2020/06/10 22:45:31;;;;;;;2.60;2.40;;;;;;;20.06;51.12;100090.60;;;;-53
2020/06/10 22:48:31;;;;;;;2.53;2.33;;;;;;;20.06;51.14;100093.95;;;;-53
2020/06/10 22:51:32;;;;;;;2.72;2.52;;;;;;;20.05;51.20;100090.90;;;;-54
2020/06/10 22:54:44;;;;;;;2.66;2.41;;;;;;;20.04;51.23;100091.13;;;;-53
2020/06/10 22:57:37;;;;;;;2.66;2.39;;;;;;;20.03;51.18;100086.47;;;;-53
2020/06/10 23:07:37;;;;;;;2.77;2.57;;;;;;;20.03;51.23;100083.02;;;;-53
2020/06/10 23:10:40;;;;;;;2.70;2.50;;;;;;;20.02;51.22;100080.50;;;;-53
2020/06/10 23:13:40;;;;;;;2.60;2.40;;;;;;;20.02;51.25;100082.48;;;;-53
2020/06/10 23:16:31;;;;;;;2.64;2.44;;;;;;;20.01;51.26;100078.69;;;;-53
2020/06/10 23:19:31;;;;;;;2.48;2.28;;;;;;;20.01;51.19;100076.78;;;;-53
2020/06/10 23:22:34;;;;;;;2.57;2.37;;;;;;;20.00;51.15;100076.30;;;;-54
2020/06/10 23:25:46;;;;;;;2.53;2.33;;;;;;;20.01;51.22;100077.17;;;;-53
2020/06/10 23:28:48;;;;;;;2.62;2.42;;;;;;;20.00;51.21;100081.33;;;;-53
2020/06/10 23:35:46;;;;;;;2.75;2.41;;;;;;;19.99;51.21;100078.11;;;;-53
2020/06/10 23:38:52;;;;;;;2.88;2.68;;;;;;;19.99;51.22;100077.37;;;;-52
2020/06/10 23:51:44;;;;;;;2.70;2.50;;;;;;;19.97;51.23;100075.72;;;;-52
2020/06/10 23:54:48;;;;;;;2.59;2.39;;;;;;;19.96;51.25;100074.38;;;;-52
2020/06/10 23:58:53;;;;;;;2.53;2.33;;;;;;;19.96;51.26;100073.84;;;;-52
